createdAt,value
2022-08-02T00:00:35.301Z,52.56
2022-08-02T00:03:03.019Z,52.27
2022-08-02T00:05:30.418Z,53.45
2022-08-02T00:07:57.835Z,53.91
2022-08-02T00:10:25.579Z,53.24
2022-08-02T00:12:53.855Z,53.56
2022-08-02T00:15:22.701Z,54.00
2022-08-02T00:17:50.363Z,53.29
2022-08-02T00:20:17.790Z,52.97
2022-08-02T00:22:45.450Z,52.85
2022-08-02T00:25:14.470Z,53.07
2022-08-02T00:27:41.881Z,53.57
2022-08-02T00:30:09.639Z,53.54
2022-08-02T00:32:37.353Z,53.29
2022-08-02T00:35:05.149Z,54.18
2022-08-02T00:37:32.704Z,53.79
2022-08-02T00:40:02.227Z,53.92
2022-08-02T00:42:29.660Z,53.82
2022-08-02T00:44:58.856Z,53.40
2022-08-02T00:47:26.530Z,54.08
2022-08-02T00:49:53.939Z,54.92
2022-08-02T00:52:23.058Z,55.20
2022-08-02T00:54:50.847Z,55.04
2022-08-02T00:57:18.275Z,55.61
2022-08-02T00:59:45.694Z,54.64
2022-08-02T01:02:13.592Z,54.43
2022-08-02T01:04:41.374Z,54.42
2022-08-02T01:07:12.338Z,54.13
2022-08-02T01:09:42.769Z,55.14
2022-08-02T01:12:10.887Z,54.69
2022-08-02T01:14:39.232Z,54.09
2022-08-02T01:17:09.312Z,54.28
2022-08-02T01:19:55.358Z,54.22
2022-08-02T01:22:59.964Z,54.68
2022-08-02T01:25:43.108Z,56.25
2022-08-02T01:28:28.994Z,56.20
2022-08-02T01:31:04.898Z,56.05
2022-08-02T01:34:09.930Z,55.41
2022-08-02T01:36:40.851Z,55.42
2022-08-02T01:39:11.725Z,55.68
2022-08-02T01:41:57.336Z,56.10
2022-08-02T01:44:29.217Z,55.38
2022-08-02T01:47:02.292Z,55.30
2022-08-02T01:49:31.344Z,55.74
2022-08-02T01:52:19.532Z,56.16
2022-08-02T01:54:54.781Z,57.71
2022-08-02T01:57:23.275Z,57.20
2022-08-02T01:59:52.011Z,56.92
2022-08-02T02:02:20.405Z,57.39
2022-08-02T02:04:49.244Z,58.14
2022-08-02T02:07:19.087Z,58.60
2022-08-02T02:09:50.297Z,58.57
2022-08-02T02:14:51.966Z,58.83
2022-08-02T02:17:50.732Z,58.35
2022-08-02T02:20:16.507Z,59.53
2022-08-02T02:22:44.093Z,62.70
2022-08-02T02:25:12.810Z,59.99
2022-08-02T02:27:48.936Z,58.99
2022-08-02T02:30:17.233Z,58.15
2022-08-02T02:32:45.962Z,59.79
2022-08-02T02:35:14.079Z,59.92
2022-08-02T02:37:44.641Z,60.37
2022-08-02T02:40:13.090Z,59.61
2022-08-02T02:42:41.544Z,59.92
2022-08-02T02:45:18.673Z,59.13
2022-08-02T02:47:49.618Z,60.31
2022-08-02T02:50:18.331Z,59.37
2022-08-02T02:52:46.245Z,59.06
2022-08-02T02:55:14.389Z,59.39
2022-08-02T02:57:42.326Z,58.73
2022-08-02T03:00:12.257Z,59.43
2022-08-02T03:02:40.713Z,61.08
2022-08-02T03:05:09.807Z,60.66
2022-08-02T03:07:37.700Z,61.26
2022-08-02T03:10:07.015Z,60.20
2022-08-02T03:15:07.301Z,59.82
2022-08-02T03:17:42.663Z,59.61
2022-08-02T03:20:17.645Z,59.27
2022-08-02T03:22:45.663Z,59.35
2022-08-02T03:25:15.096Z,60.63
2022-08-02T03:27:42.887Z,61.30
2022-08-02T03:30:12.497Z,60.86
2022-08-02T03:32:41.344Z,61.36
2022-08-02T03:35:10.898Z,60.37
2022-08-02T03:37:38.738Z,61.25
2022-08-02T03:40:08.252Z,61.58
2022-08-02T03:42:35.663Z,61.73
2022-08-02T03:45:08.437Z,60.29
2022-08-02T03:47:37.984Z,60.59
2022-08-02T03:50:12.370Z,60.63
2022-08-02T03:52:42.836Z,60.97
2022-08-02T03:55:11.817Z,61.88
2022-08-02T03:57:40.806Z,60.47
2022-08-02T04:00:10.477Z,60.89
2022-08-02T04:02:39.805Z,60.33
2022-08-02T04:05:07.774Z,59.42
2022-08-02T04:08:33.000Z,59.21
2022-08-02T04:10:22.905Z,58.37
2022-08-02T04:12:50.339Z,56.96
2022-08-02T04:15:17.843Z,56.15
2022-08-02T04:17:56.575Z,55.88
2022-08-02T04:20:28.790Z,55.70
2022-08-02T04:23:03.341Z,54.38
2022-08-02T04:25:35.328Z,54.29
2022-08-02T04:28:16.580Z,54.46
2022-08-02T04:30:49.393Z,52.13
2022-08-02T04:33:17.662Z,52.33
2022-08-02T04:35:45.660Z,53.16
2022-08-02T04:38:15.029Z,52.68
2022-08-02T04:40:55.389Z,51.52
2022-08-02T04:43:23.402Z,50.53
2022-08-02T04:45:53.571Z,49.69
2022-08-02T04:48:21.644Z,48.63
2022-08-02T04:50:49.223Z,48.51
2022-08-02T04:53:17.182Z,48.31
2022-08-02T04:55:44.675Z,46.79
2022-08-02T04:58:37.404Z,46.49
2022-08-02T05:00:59.916Z,47.25
2022-08-02T05:03:27.439Z,47.37
2022-08-02T05:05:54.846Z,47.77
2022-08-02T05:08:22.570Z,47.14
2022-08-02T05:10:50.021Z,46.61
2022-08-02T05:13:17.483Z,45.81
2022-08-02T05:15:45.194Z,45.36
2022-08-02T05:18:12.602Z,47.24
2022-08-02T05:20:40.692Z,46.95
2022-08-02T05:23:08.381Z,48.43
2022-08-02T05:25:35.794Z,46.72
2022-08-02T05:28:04.535Z,44.42
2022-08-02T05:30:33.854Z,48.07
2022-08-02T05:33:01.248Z,47.41
2022-08-02T05:35:28.678Z,46.08
2022-08-02T05:37:56.562Z,46.24
2022-08-02T05:40:25.947Z,45.58
2022-08-02T05:42:54.374Z,44.45
2022-08-02T05:45:22.954Z,45.53
2022-08-02T05:47:50.425Z,43.31
2022-08-02T05:50:17.925Z,43.05
2022-08-02T05:52:47.112Z,42.77
2022-08-02T05:55:19.472Z,42.66
2022-08-02T05:58:08.166Z,42.93
2022-08-02T06:00:37.213Z,40.82
2022-08-02T06:03:16.829Z,40.74
2022-08-02T06:05:52.162Z,41.09
2022-08-02T06:08:21.492Z,40.52
2022-08-02T06:10:52.002Z,41.07
2022-08-02T06:13:20.493Z,42.44
2022-08-02T06:15:53.430Z,40.25
2022-08-02T06:18:28.433Z,38.29
2022-08-02T06:22:30.554Z,38.73
2022-08-02T06:23:57.700Z,39.95
2022-08-02T06:26:28.116Z,37.76
2022-08-02T06:28:57.498Z,37.32
2022-08-02T06:31:25.497Z,37.47
2022-08-02T06:33:53.205Z,38.02
2022-08-02T06:36:42.724Z,36.51
2022-08-02T06:39:23.912Z,37.89
2022-08-02T06:41:52.710Z,38.97
2022-08-02T06:44:47.054Z,40.22
2022-08-02T06:47:13.125Z,38.73
2022-08-02T06:49:52.088Z,35.96
2022-08-02T06:52:29.828Z,37.10
2022-08-02T06:55:02.290Z,38.26
2022-08-02T06:57:30.647Z,34.60
2022-08-02T06:59:58.694Z,33.88
2022-08-02T07:02:26.117Z,32.92
2022-08-02T07:04:54.665Z,28.41
2022-08-02T07:07:22.133Z,27.22
2022-08-02T07:09:56.466Z,27.17
2022-08-02T07:12:33.753Z,27.03
2022-08-02T07:15:02.925Z,26.67
2022-08-02T07:17:31.717Z,27.26
2022-08-02T07:20:00.170Z,28.84
2022-08-02T07:22:28.483Z,29.10
2022-08-02T07:24:57.435Z,29.81
2022-08-02T07:27:25.330Z,30.32
2022-08-02T07:29:53.219Z,30.85
2022-08-02T07:32:23.231Z,31.46
2022-08-02T07:34:52.973Z,31.81
2022-08-02T07:37:53.759Z,34.50
2022-08-02T07:40:15.100Z,33.29
2022-08-02T07:42:52.080Z,33.02
2022-08-02T07:45:20.722Z,35.49
2022-08-02T07:47:49.112Z,34.97
2022-08-02T07:50:18.338Z,35.58
2022-08-02T07:52:46.497Z,34.44
2022-08-02T07:55:15.902Z,35.72
2022-08-02T07:57:46.435Z,38.33
2022-08-02T08:00:16.347Z,37.14
2022-08-02T08:02:45.365Z,38.40
2022-08-02T08:05:13.296Z,37.23
2022-08-02T08:07:41.017Z,36.52
2022-08-02T08:10:09.305Z,36.82
2022-08-02T08:12:36.706Z,36.66
2022-08-02T08:15:05.058Z,37.49
2022-08-02T08:17:32.821Z,37.70
2022-08-02T08:20:01.605Z,39.08
2022-08-02T08:22:29.014Z,38.03
2022-08-02T08:24:56.670Z,38.17
2022-08-02T08:27:24.319Z,37.49
2022-08-02T08:29:51.792Z,37.12
2022-08-02T08:32:19.862Z,35.88
2022-08-02T08:34:47.792Z,37.77
2022-08-02T08:37:16.857Z,37.29
2022-08-02T08:39:56.238Z,37.20
2022-08-02T08:42:27.707Z,36.74
2022-08-02T08:44:56.704Z,36.43
2022-08-02T08:47:36.365Z,36.11
2022-08-02T08:50:06.233Z,36.47
2022-08-02T08:52:43.346Z,36.45
2022-08-02T08:55:12.078Z,35.66
2022-08-02T08:57:43.584Z,37.43
2022-08-02T09:00:16.951Z,37.62
2022-08-02T09:02:44.605Z,35.66
2022-08-02T09:05:14.542Z,34.47
2022-08-02T09:07:42.897Z,35.67
2022-08-02T09:10:38.332Z,35.61
2022-08-02T09:13:37.824Z,35.07
2022-08-02T09:15:56.437Z,36.99
2022-08-02T09:18:39.792Z,34.69
2022-08-02T09:21:09.072Z,34.24
2022-08-02T09:23:47.705Z,33.05
2022-08-02T09:26:17.211Z,33.24
2022-08-02T09:28:47.048Z,31.60
2022-08-02T09:31:16.494Z,33.16
2022-08-02T09:33:45.259Z,32.95
2022-08-02T09:36:17.108Z,32.34
2022-08-02T09:38:58.968Z,31.94
2022-08-02T09:41:28.307Z,32.50
2022-08-02T09:44:03.560Z,32.05
2022-08-02T09:46:37.850Z,33.90
2022-08-02T09:49:16.979Z,33.11
2022-08-02T09:51:51.659Z,34.52
2022-08-02T09:54:23.295Z,33.19
2022-08-02T09:56:53.715Z,32.42
2022-08-02T09:59:22.934Z,33.80
2022-08-02T10:01:58.853Z,32.75
2022-08-02T10:04:32.104Z,32.80
2022-08-02T10:07:04.523Z,33.12
2022-08-02T10:09:33.605Z,32.19
2022-08-02T10:12:01.848Z,32.26
2022-08-02T10:14:31.444Z,32.32
2022-08-02T10:16:59.226Z,32.88
2022-08-02T10:20:02.910Z,33.96
2022-08-02T10:22:16.464Z,33.00
2022-08-02T10:24:48.337Z,32.35
2022-08-02T10:27:20.251Z,33.44
2022-08-02T10:29:55.109Z,33.25
2022-08-02T10:32:33.288Z,33.88
2022-08-02T10:35:20.073Z,34.09
2022-08-02T10:37:58.439Z,34.04
2022-08-02T10:40:28.653Z,34.23
2022-08-02T10:43:00.820Z,32.66
2022-08-02T10:45:29.216Z,31.83
2022-08-02T10:48:06.134Z,33.08
2022-08-02T10:50:45.617Z,32.51
2022-08-02T10:53:33.222Z,33.81
2022-08-02T10:56:02.767Z,32.72
2022-08-02T10:58:32.934Z,33.54
2022-08-02T11:01:05.596Z,33.59
2022-08-02T11:03:39.597Z,34.37
2022-08-02T11:06:25.045Z,34.47
2022-08-02T11:09:32.506Z,33.06
2022-08-02T11:12:05.893Z,34.05
2022-08-02T11:14:35.958Z,32.91
2022-08-02T11:17:05.435Z,34.11
2022-08-02T11:19:34.850Z,33.47
2022-08-02T11:22:05.141Z,32.70
2022-08-02T11:24:34.101Z,33.20
2022-08-02T11:27:07.077Z,32.95
2022-08-02T11:29:42.453Z,34.29
2022-08-02T11:32:22.595Z,33.92
2022-08-02T11:34:59.224Z,33.93
2022-08-02T11:37:36.398Z,33.87
2022-08-02T11:40:09.080Z,34.38
2022-08-02T11:42:44.352Z,32.90
2022-08-02T11:45:21.079Z,34.62
2022-08-02T11:47:51.412Z,32.58
2022-08-02T11:50:30.459Z,33.49
2022-08-02T11:52:58.108Z,32.71
2022-08-02T11:55:30.488Z,32.87
2022-08-02T11:58:04.810Z,32.23
2022-08-02T12:00:34.395Z,34.40
2022-08-02T12:03:02.192Z,33.84
2022-08-02T12:06:04.024Z,35.03
2022-08-02T12:08:19.334Z,34.87
2022-08-02T12:10:50.098Z,35.03
2022-08-02T12:13:17.788Z,35.59
2022-08-02T12:15:46.668Z,34.85
2022-08-02T12:18:35.836Z,34.54
2022-08-02T12:21:21.258Z,34.63
2022-08-02T12:23:59.407Z,34.77
2022-08-02T12:26:30.084Z,34.39
2022-08-02T12:28:58.688Z,34.84
2022-08-02T12:31:57.437Z,35.25
2022-08-02T12:34:31.182Z,35.35
2022-08-02T12:37:02.926Z,35.34
2022-08-02T12:39:38.095Z,33.71
2022-08-02T12:42:06.774Z,33.04
2022-08-02T12:44:36.766Z,33.86
2022-08-02T12:47:12.402Z,33.35
2022-08-02T12:49:40.048Z,33.09
2022-08-02T12:52:22.141Z,31.77
2022-08-02T12:54:50.326Z,32.24
2022-08-02T12:57:19.743Z,33.30
2022-08-02T12:59:53.229Z,32.94
2022-08-02T13:02:21.661Z,32.04
2022-08-02T13:04:50.287Z,32.51
2022-08-02T13:07:18.785Z,31.20
2022-08-02T13:09:48.295Z,32.27
2022-08-02T13:12:16.662Z,29.92
2022-08-02T13:14:44.409Z,30.51
2022-08-02T13:17:12.763Z,31.59
2022-08-02T13:19:42.227Z,30.27
2022-08-02T13:22:10.926Z,29.40
2022-08-02T13:24:55.009Z,28.89
2022-08-02T13:27:28.637Z,29.63
2022-08-02T13:29:57.225Z,28.81
2022-08-02T13:32:25.260Z,29.61
2022-08-02T13:34:52.685Z,27.67
2022-08-02T13:37:20.500Z,27.17
2022-08-02T13:40:11.920Z,26.75
2022-08-02T13:42:36.235Z,27.10
2022-08-02T13:45:13.345Z,27.10
2022-08-02T13:48:03.856Z,27.26
2022-08-02T13:50:31.131Z,26.28
2022-08-02T13:55:43.945Z,27.25
2022-08-02T13:58:11.655Z,27.53
2022-08-02T14:00:39.099Z,27.65
2022-08-02T14:03:07.796Z,27.73
2022-08-02T14:05:48.149Z,27.09
2022-08-02T14:08:20.591Z,28.43
2022-08-02T14:10:48.646Z,27.71
2022-08-02T14:13:17.106Z,27.32
2022-08-02T14:15:44.859Z,26.22
2022-08-02T14:18:12.656Z,26.57
2022-08-02T14:20:40.271Z,27.45
2022-08-02T14:23:07.696Z,28.09
2022-08-02T14:25:35.142Z,27.45
2022-08-02T14:28:04.263Z,26.90
2022-08-02T14:30:31.648Z,27.53
2022-08-02T14:32:59.133Z,27.34
2022-08-02T14:35:26.918Z,25.73
2022-08-02T14:37:54.465Z,26.59
2022-08-02T14:40:31.428Z,26.59
2022-08-02T14:43:01.307Z,26.38
2022-08-02T14:45:39.741Z,26.35
2022-08-02T14:48:11.137Z,25.42
2022-08-02T14:50:38.715Z,25.06
2022-08-02T14:53:06.157Z,25.43
2022-08-02T14:55:39.941Z,25.27
2022-08-02T14:58:07.363Z,25.46
2022-08-02T15:00:38.672Z,26.99
2022-08-02T15:03:09.117Z,26.11
2022-08-02T15:05:37.119Z,26.05
2022-08-02T15:08:04.998Z,26.24
2022-08-02T15:10:32.738Z,25.52
2022-08-02T15:13:00.196Z,26.49
2022-08-02T15:15:27.733Z,27.80
2022-08-02T15:17:55.357Z,27.72
2022-08-02T15:20:25.659Z,27.87
2022-08-02T15:22:54.097Z,27.47
2022-08-02T15:25:22.142Z,27.29
2022-08-02T15:27:49.540Z,28.34
2022-08-02T15:30:16.963Z,27.90
2022-08-02T15:32:53.494Z,27.63
2022-08-02T15:35:21.522Z,29.32
2022-08-02T15:37:49.189Z,28.22
2022-08-02T15:40:16.791Z,28.52
2022-08-02T15:42:45.471Z,28.58
2022-08-02T15:45:15.326Z,28.61
2022-08-02T15:47:48.049Z,27.80
2022-08-02T15:50:18.549Z,27.20
2022-08-02T15:52:45.970Z,27.52
2022-08-02T15:55:14.075Z,27.02
2022-08-02T15:57:41.693Z,27.50
2022-08-02T16:00:18.641Z,28.89
2022-08-02T16:02:47.862Z,27.50
2022-08-02T16:05:17.910Z,28.30
2022-08-02T16:07:46.558Z,28.29
2022-08-02T16:10:15.728Z,27.79
2022-08-02T16:12:43.256Z,27.25
2022-08-02T16:15:10.812Z,27.41
2022-08-02T16:17:51.514Z,27.75
2022-08-02T16:20:23.022Z,28.07
2022-08-02T16:22:50.644Z,27.22
2022-08-02T16:25:18.051Z,27.63
2022-08-02T16:27:59.451Z,28.22
2022-08-02T16:30:33.470Z,28.22
2022-08-02T16:33:01.142Z,28.17
2022-08-02T16:35:28.574Z,28.62
2022-08-02T16:37:56.478Z,28.62
2022-08-02T16:40:24.052Z,28.80
2022-08-02T16:42:51.420Z,28.10
2022-08-02T16:45:20.953Z,28.56
2022-08-02T16:47:55.903Z,28.06
2022-08-02T16:53:36.347Z,26.98
2022-08-02T16:56:03.636Z,27.55
2022-08-02T16:58:31.268Z,27.41
2022-08-02T17:00:58.726Z,27.41
2022-08-02T17:03:56.436Z,28.13
2022-08-02T17:06:16.066Z,27.95
2022-08-02T17:08:54.367Z,28.23
2022-08-02T17:11:23.687Z,29.16
2022-08-02T17:13:51.765Z,28.99
2022-08-02T17:16:25.750Z,29.07
2022-08-02T17:18:54.812Z,29.26
2022-08-02T17:21:23.235Z,29.83
2022-08-02T17:24:04.872Z,29.58
2022-08-02T17:26:36.171Z,29.20
2022-08-02T17:29:16.282Z,28.93
2022-08-02T17:32:04.810Z,29.18
2022-08-02T17:34:35.381Z,29.61
2022-08-02T17:37:05.716Z,28.96
2022-08-02T17:39:44.271Z,28.70
2022-08-02T17:42:23.396Z,28.63
2022-08-02T17:44:53.680Z,28.45
2022-08-02T17:47:22.405Z,29.17
2022-08-02T17:49:52.863Z,28.36
2022-08-02T17:52:50.912Z,28.83
2022-08-02T17:55:12.860Z,28.69
2022-08-02T17:57:57.044Z,28.57
2022-08-02T18:00:37.356Z,28.34
2022-08-02T18:03:08.042Z,29.12
2022-08-02T18:05:40.240Z,28.22
2022-08-02T18:08:21.180Z,27.80
2022-08-02T18:10:49.069Z,28.30
2022-08-02T18:13:16.706Z,28.07
2022-08-02T18:15:45.647Z,28.08
2022-08-02T18:18:14.499Z,28.39
2022-08-02T18:20:42.471Z,28.25
2022-08-02T18:23:13.722Z,27.56
2022-08-02T18:25:45.902Z,28.57
2022-08-02T18:28:15.530Z,28.11
2022-08-02T18:30:44.667Z,28.73
2022-08-02T18:33:58.364Z,29.25
2022-08-02T18:36:00.247Z,29.57
2022-08-02T18:38:30.283Z,29.04
2022-08-02T18:41:02.204Z,29.93
2022-08-02T18:43:34.745Z,29.60
2022-08-02T18:46:15.480Z,30.37
2022-08-02T18:48:47.954Z,30.17
2022-08-02T18:51:18.734Z,30.77
2022-08-02T18:53:51.332Z,30.33
2022-08-02T18:56:24.259Z,30.78
2022-08-02T18:58:54.621Z,31.40
2022-08-02T19:01:34.024Z,31.64
2022-08-02T19:04:04.828Z,32.92
2022-08-02T19:06:32.889Z,32.72
2022-08-02T19:09:10.473Z,32.28
2022-08-02T19:11:48.128Z,32.29
2022-08-02T19:14:24.155Z,32.85
2022-08-02T19:16:57.109Z,33.93
2022-08-02T19:19:28.795Z,33.95
2022-08-02T19:22:15.970Z,33.76
2022-08-02T19:24:47.820Z,33.59
2022-08-02T19:30:07.351Z,35.18
2022-08-02T19:32:42.156Z,34.90
2022-08-02T19:35:30.584Z,34.44
2022-08-02T19:38:07.651Z,34.98
2022-08-02T19:40:37.501Z,34.96
2022-08-02T19:44:20.868Z,36.62
2022-08-02T19:45:56.889Z,36.13
2022-08-02T19:48:25.364Z,35.99
2022-08-02T19:50:56.134Z,36.68
2022-08-02T19:53:28.797Z,35.81
2022-08-02T19:56:00.585Z,36.85
2022-08-02T19:58:31.117Z,36.58
2022-08-02T20:01:00.135Z,36.34
2022-08-02T20:03:52.077Z,38.01
2022-08-02T20:06:17.814Z,37.99
2022-08-02T20:08:52.837Z,37.58
2022-08-02T20:11:23.395Z,37.13
2022-08-02T20:13:52.842Z,36.77
2022-08-02T20:16:27.385Z,36.95
2022-08-02T20:18:56.413Z,37.55
2022-08-02T20:21:36.423Z,37.49
2022-08-02T20:24:11.838Z,37.55
2022-08-02T20:26:47.176Z,37.79
2022-08-02T20:29:42.335Z,38.68
2022-08-02T20:32:04.386Z,38.55
2022-08-02T20:34:33.686Z,38.92
2022-08-02T20:37:59.978Z,38.76
2022-08-02T20:39:52.865Z,38.01
2022-08-02T20:42:23.061Z,37.29
2022-08-02T20:44:55.646Z,37.55
2022-08-02T20:47:28.248Z,38.16
2022-08-02T20:50:31.327Z,38.93
2022-08-02T20:53:00.635Z,38.62
2022-08-02T20:55:31.165Z,38.81
2022-08-02T20:58:02.840Z,39.19
2022-08-02T21:00:31.960Z,39.79
2022-08-02T21:03:04.316Z,40.27
2022-08-02T21:05:54.181Z,40.08
2022-08-02T21:08:21.492Z,39.67
2022-08-02T21:10:52.364Z,39.19
2022-08-02T21:13:23.076Z,39.58
2022-08-02T21:15:55.435Z,40.09
2022-08-02T21:18:30.547Z,42.89
2022-08-02T21:21:09.318Z,41.74
2022-08-02T21:23:37.752Z,41.73
2022-08-02T21:26:08.929Z,41.31
2022-08-02T21:31:24.164Z,41.38
2022-08-02T21:34:00.077Z,40.51
2022-08-02T21:36:30.687Z,40.55
2022-08-02T21:39:08.802Z,41.31
2022-08-02T21:41:46.226Z,41.84
2022-08-02T21:44:20.638Z,42.36
2022-08-02T21:46:51.245Z,43.36
2022-08-02T21:49:20.765Z,44.11
2022-08-02T21:51:54.835Z,42.32
2022-08-02T21:54:23.067Z,43.03
2022-08-02T21:56:52.860Z,42.46
2022-08-02T21:59:25.205Z,43.30
2022-08-02T22:01:58.510Z,43.45
2022-08-02T22:04:26.741Z,42.79
2022-08-02T22:06:55.299Z,42.42
2022-08-02T22:09:43.543Z,43.22
2022-08-02T22:12:17.711Z,45.07
2022-08-02T22:14:49.440Z,45.28
2022-08-02T22:17:51.777Z,44.24
2022-08-02T22:20:12.445Z,44.92
2022-08-02T22:22:40.308Z,46.31
2022-08-02T22:25:21.329Z,46.11
2022-08-02T22:28:36.022Z,46.56
2022-08-02T22:30:42.941Z,45.15
2022-08-02T22:33:33.298Z,45.84
2022-08-02T22:36:01.611Z,45.74
2022-08-02T22:38:29.671Z,45.69
2022-08-02T22:40:57.104Z,46.79
2022-08-02T22:43:24.501Z,46.54
2022-08-02T22:45:52.155Z,46.72
2022-08-02T22:48:20.414Z,47.16
2022-08-02T22:50:48.131Z,47.37
2022-08-02T22:53:18.360Z,47.88
2022-08-02T22:56:03.999Z,47.57
2022-08-02T22:58:32.739Z,48.15
2022-08-02T22:58:35.327Z,29.06
2022-08-02T22:58:59.384Z,34.88
2022-08-02T22:59:02.908Z,41.29
2022-08-02T23:01:00.895Z,47.43
2022-08-02T23:03:28.430Z,47.61
2022-08-02T23:05:56.187Z,48.21
2022-08-02T23:08:23.948Z,47.88
2022-08-02T23:10:51.318Z,46.93
2022-08-02T23:13:18.965Z,50.49
2022-08-02T23:16:05.008Z,48.91
2022-08-02T23:18:51.055Z,49.92
2022-08-02T23:21:45.618Z,50.24
2022-08-02T23:24:06.100Z,49.51
2022-08-02T23:26:33.489Z,50.76
2022-08-02T23:29:00.914Z,50.44
2022-08-02T23:31:30.232Z,49.75
2022-08-02T23:34:04.418Z,50.33
2022-08-02T23:36:32.781Z,50.76
2022-08-02T23:39:00.636Z,50.81
2022-08-02T23:41:28.047Z,50.43
2022-08-02T23:44:12.457Z,50.74
2022-08-02T23:46:44.727Z,50.12
2022-08-02T23:49:13.064Z,49.98
2022-08-02T23:51:40.474Z,50.92
2022-08-02T23:54:08.247Z,50.36
2022-08-02T23:56:36.097Z,51.05
2022-08-02T23:59:03.992Z,50.16
